Time;durP1;ratioP1;P1;durP2;ratioP2;P2;SDS_P1;SDS_P2;PMS_P1;PMS_P2;Temp;Humidity;BMP_temperature;BMP_pressure;BME280_temperature;BME280_humidity;BME280_pressure;Samples;Min_cycle;Max_cycle;Signal;HPM_P1;HPM_P2
2023/09/28 00:00:38;;;;;;;6.75;4.68;;;;;;;16.50;75.39;100658.31;4178135;28;20044;-66
2023/09/28 00:02:41;;;;;;;7.32;5.57;;;;;;;16.48;75.93;100659.19;4181788;28;20131;-66
2023/09/28 00:04:43;;;;;;;6.50;5.30;;;;;;;16.47;75.87;100662.69;4181666;28;20489;-67
2023/09/28 00:06:46;;;;;;;6.68;4.63;;;;;;;16.44;76.05;100660.09;4180830;28;20052;-66
2023/09/28 00:08:48;;;;;;;10.88;5.18;;;;;;;16.46;75.93;100655.72;4178696;28;20037;-67
2023/09/28 00:10:51;;;;;;;6.88;4.82;;;;;;;16.42;76.08;100665.34;4181212;28;20041;-67
2023/09/28 00:12:54;;;;;;;5.70;4.40;;;;;;;16.39;76.40;100666.22;4181926;28;20472;-67
2023/09/28 00:14:58;;;;;;;8.23;4.82;;;;;;;16.38;76.13;100669.75;4181694;28;20115;-66
2023/09/28 00:17:02;;;;;;;;;;;;;;;16.29;76.70;100663.69;4182063;28;20393;-66
2023/09/28 00:19:08;;;;;;;8.65;5.55;;;;;;;16.35;76.48;100661.03;4181814;28;20312;-66
2023/09/28 00:21:10;;;;;;;7.32;4.35;;;;;;;16.34;76.42;100670.66;4178109;28;20037;-66
2023/09/28 00:23:13;;;;;;;6.47;4.47;;;;;;;16.35;76.30;100664.53;4181546;28;20094;-65
2023/09/28 00:25:16;;;;;;;6.85;4.75;;;;;;;16.39;76.28;100670.63;4181802;28;20041;-66
2023/09/28 00:27:19;;;;;;;8.15;4.60;;;;;;;16.40;76.09;100667.97;4181124;28;20083;-65
2023/09/28 00:29:21;;;;;;;8.80;5.13;;;;;;;16.44;75.80;100650.47;4180861;28;20055;-66
2023/09/28 00:31:25;;;;;;;9.20;5.55;;;;;;;16.42;75.98;100664.50;4163734;28;20092;-66
2023/09/28 00:33:27;;;;;;;;;;;;;;;16.21;77.24;100675.09;4164174;28;20041;-66
2023/09/28 00:35:30;;;;;;;6.45;4.50;;;;;;;16.23;77.20;100675.09;4163770;28;20324;-66
2023/09/28 00:37:32;;;;;;;10.23;5.03;;;;;;;16.29;76.86;100664.56;4163460;28;20496;-66
2023/09/28 00:39:36;;;;;;;6.53;4.53;;;;;;;16.35;76.61;100669.78;4181419;28;20037;-66
2023/09/28 00:41:38;;;;;;;7.23;5.17;;;;;;;16.34;76.68;100672.38;4176663;28;20386;-66
2023/09/28 00:43:42;;;;;;;8.73;5.05;;;;;;;16.35;76.64;100669.78;4181561;28;20044;-67
2023/09/28 00:45:44;;;;;;;12.45;5.72;;;;;;;16.36;76.79;100665.41;4163953;28;20033;-66
2023/09/28 00:47:51;;;;;;;8.27;4.82;;;;;;;16.38;76.66;100661.00;4163756;28;20551;-66
2023/09/28 00:49:54;;;;;;;7.70;5.15;;;;;;;16.36;76.64;100666.25;4160274;28;20491;-65
2023/09/28 00:51:59;;;;;;;7.75;4.90;;;;;;;16.32;76.88;100664.53;4163481;28;20048;-66
2023/09/28 00:54:02;;;;;;;13.30;5.68;;;;;;;16.35;76.75;100666.28;4180445;28;20037;-65
2023/09/28 00:56:07;;;;;;;10.27;6.15;;;;;;;16.37;76.61;100662.75;4163651;28;20037;-66
2023/09/28 00:58:09;;;;;;;8.32;5.72;;;;;;;16.36;76.67;100665.41;4161370;28;20455;-66
2023/09/28 01:00:23;;;;;;;7.30;5.15;;;;;;;16.42;76.39;100660.09;4163254;28;20121;-65
2023/09/28 01:02:26;;;;;;;9.47;5.73;;;;;;;16.41;76.50;100655.72;4163466;28;20060;-65
2023/09/28 01:04:30;;;;;;;8.65;6.22;;;;;;;16.38;76.28;100648.78;4179843;28;20124;-65
2023/09/28 01:06:35;;;;;;;10.60;6.50;;;;;;;16.38;76.55;100645.25;4163519;28;20041;-65
2023/09/28 01:08:39;;;;;;;7.18;5.97;;;;;;;16.38;76.54;100647.88;4163527;28;20040;-65
2023/09/28 01:10:41;;;;;;;9.60;5.40;;;;;;;16.30;76.92;100653.19;4163373;28;20038;-65
2023/09/28 01:12:44;;;;;;;11.50;6.20;;;;;;;16.27;77.11;100668.09;4163378;28;20033;-65
2023/09/28 01:14:48;;;;;;;11.13;5.65;;;;;;;16.23;77.59;100667.22;4181062;28;20120;-65
2023/09/28 01:16:52;;;;;;;10.00;6.35;;;;;;;16.25;77.51;100673.31;4180673;28;20458;-65
2023/09/28 01:18:54;;;;;;;12.65;5.75;;;;;;;16.27;77.50;100671.56;4179185;28;20041;-66
2023/09/28 01:21:01;;;;;;;7.53;6.05;;;;;;;16.32;77.60;100679.41;4179710;28;20048;-65
2023/09/28 01:23:04;;;;;;;;;;;;;;;16.31;77.21;100665.44;4181517;28;20450;-65
2023/09/28 01:25:08;;;;;;;10.20;5.55;;;;;;;16.36;77.17;100663.63;4176879;28;19920;-66
2023/09/28 01:27:10;;;;;;;10.77;5.78;;;;;;;16.35;77.16;100664.53;4180635;28;20487;-66
2023/09/28 01:29:13;;;;;;;7.72;5.32;;;;;;;16.37;76.99;100654.03;4179346;28;20466;-66
2023/09/28 01:31:16;;;;;;;9.07;5.97;;;;;;;16.34;77.12;100662.78;4163004;28;20076;-66
2023/09/28 01:33:19;;;;;;;8.32;5.53;;;;;;;16.36;77.60;100661.00;4163237;28;20044;-66
2023/09/28 01:35:21;;;;;;;9.40;6.13;;;;;;;16.38;77.37;100654.03;4158746;28;20045;-66
2023/09/28 01:37:34;;;;;;;9.38;6.30;;;;;;;16.42;77.08;100646.13;4162767;28;20095;-66
2023/09/28 01:39:38;;;;;;;11.63;6.68;;;;;;;16.42;77.26;100644.34;4162862;28;20041;-66
2023/09/28 01:41:41;;;;;;;8.77;6.55;;;;;;;16.38;77.41;100646.16;4163043;28;20531;-66
2023/09/28 01:43:45;;;;;;;11.65;6.38;;;;;;;16.37;77.21;100652.25;4163294;28;20075;-66
2023/09/28 01:45:49;;;;;;;7.80;6.40;;;;;;;16.39;77.39;100655.75;4162670;28;20075;-66
2023/09/28 01:47:51;;;;;;;11.15;6.68;;;;;;;16.39;77.24;100655.75;4162571;28;20041;-66
2023/09/28 01:49:54;;;;;;;8.85;6.40;;;;;;;16.39;77.33;100665.38;4179115;28;20079;-66
2023/09/28 01:51:56;;;;;;;9.55;6.40;;;;;;;16.40;77.28;100661.88;4162711;28;20104;-66
2023/09/28 01:53:59;;;;;;;8.38;6.15;;;;;;;16.43;77.32;100660.97;4180688;28;20507;-66
2023/09/28 01:56:04;;;;;;;11.43;6.53;;;;;;;16.42;77.46;100665.34;4180335;28;20124;-66
2023/09/28 01:58:26;;;;;;;9.05;7.05;;;;;;;16.39;77.02;100668.00;4175510;28;20071;-66
2023/09/28 02:00:28;;;;;;;10.27;6.85;;;;;;;16.40;77.22;100665.34;4162487;28;20037;-66
2023/09/28 02:02:34;;;;;;;12.00;7.13;;;;;;;16.37;77.48;100662.75;4180418;28;20035;-66
2023/09/28 02:04:37;;;;;;;9.77;7.10;;;;;;;16.42;77.09;100654.00;4180504;28;20595;-66
2023/09/28 02:06:39;;;;;;;9.20;6.68;;;;;;;16.39;77.49;100665.38;4179466;28;20132;-66
2023/09/28 02:08:43;;;;;;;11.43;6.60;;;;;;;16.40;77.35;100665.34;4162504;28;20075;-66
2023/09/28 02:10:48;;;;;;;8.90;6.38;;;;;;;16.38;77.58;100668.88;4160835;28;20044;-66
2023/09/28 02:12:51;;;;;;;12.77;6.85;;;;;;;16.39;77.78;100676.72;4179956;28;20380;-66
2023/09/28 02:14:54;;;;;;;8.75;6.15;;;;;;;16.39;77.64;100673.25;4146397;28;20115;-65
2023/09/28 02:16:56;;;;;;;9.70;7.25;;;;;;;16.50;77.20;100663.56;4162040;28;20051;-66
2023/09/28 02:18:59;;;;;;;12.43;8.15;;;;;;;16.49;77.25;100667.06;4179808;28;20123;-66
2023/09/28 02:21:02;;;;;;;8.88;7.47;;;;;;;16.53;77.09;100660.03;4162533;28;20049;-66
2023/09/28 02:23:09;;;;;;;9.55;7.50;;;;;;;16.45;77.42;100656.59;4162513;28;20079;-66
2023/09/28 02:25:14;;;;;;;11.90;7.75;;;;;;;16.46;77.55;100647.84;4180076;28;20049;-66
2023/09/28 02:27:18;;;;;;;12.02;7.93;;;;;;;16.49;77.59;100647.81;4161984;28;20044;-66
2023/09/28 02:29:22;;;;;;;9.18;8.10;;;;;;;16.39;77.96;100642.63;4162410;28;20436;-66
2023/09/28 02:31:27;;;;;;;10.07;8.35;;;;;;;16.43;77.84;100650.47;4161902;28;20042;-66
2023/09/28 02:33:29;;;;;;;13.65;8.60;;;;;;;16.33;78.48;100660.16;4162593;28;20041;-66
2023/09/28 02:35:33;;;;;;;11.40;7.43;;;;;;;16.35;78.45;100674.13;4179743;28;20043;-66
2023/09/28 02:37:35;;;;;;;9.15;7.10;;;;;;;16.34;78.61;100685.50;4178236;28;20041;-66
2023/09/28 02:39:38;;;;;;;10.88;7.90;;;;;;;16.34;78.73;100694.28;4178985;28;20128;-66
2023/09/28 02:41:41;;;;;;;;;;;;;;;16.27;78.92;100700.44;4162481;28;20052;-66
2023/09/28 02:43:44;;;;;;;11.70;8.80;;;;;;;16.42;78.38;100691.59;4179786;28;19921;-66
2023/09/28 02:45:47;;;;;;;13.40;8.23;;;;;;;16.44;78.19;100683.72;4179292;28;20123;-67
2023/09/28 02:47:50;;;;;;;12.38;8.27;;;;;;;16.40;78.68;100693.38;4161061;28;20029;-66
2023/09/28 02:49:52;;;;;;;9.88;7.97;;;;;;;16.44;78.49;100694.19;4161324;28;20124;-66
2023/09/28 02:51:56;;;;;;;11.60;7.95;;;;;;;16.46;78.42;100684.59;4162025;28;20124;-66
2023/09/28 02:53:59;;;;;;;10.43;8.15;;;;;;;16.48;78.16;100674.94;4178433;28;20037;-66
2023/09/28 02:56:03;;;;;;;10.43;7.32;;;;;;;16.47;78.18;100678.44;4162481;28;20044;-66
2023/09/28 02:58:05;;;;;;;9.88;7.55;;;;;;;16.48;78.46;100680.19;4162062;28;20080;-66
2023/09/28 03:00:24;;;;;;;12.15;7.13;;;;;;;16.45;78.71;100690.72;4162360;28;20428;-66
2023/09/28 03:02:29;;;;;;;10.13;6.47;;;;;;;16.53;78.27;100678.41;4177207;28;20488;-66
2023/09/28 03:04:33;;;;;;;8.80;5.93;;;;;;;16.48;78.42;100696.78;4158668;28;20045;-66
2023/09/28 03:06:37;;;;;;;10.48;7.22;;;;;;;16.47;78.41;100689.81;4180078;28;20041;-66
2023/09/28 03:08:40;;;;;;;12.13;7.90;;;;;;;16.53;78.38;100689.78;4178391;28;20488;-66
2023/09/28 03:10:43;;;;;;;10.50;7.57;;;;;;;16.53;78.33;100689.78;4179625;28;20060;-66
2023/09/28 03:12:47;;;;;;;9.35;6.88;;;;;;;16.52;78.58;100697.66;4179622;28;20029;-66
2023/09/28 03:14:49;;;;;;;11.30;7.53;;;;;;;16.50;78.46;100704.66;4162229;28;20041;-66
2023/09/28 03:16:53;;;;;;;11.73;8.93;;;;;;;16.57;78.38;100704.63;4161813;28;20037;-66
2023/09/28 03:18:57;;;;;;;8.70;6.80;;;;;;;16.52;78.45;100714.28;4161999;28;20061;-66
2023/09/28 03:21:00;;;;;;;;;;;;;;;16.50;78.30;100710.78;4179646;28;20048;-66
2023/09/28 03:23:04;;;;;;;9.45;7.53;;;;;;;16.58;77.92;100705.50;4179689;28;19924;-66
2023/09/28 03:25:11;;;;;;;9.27;6.72;;;;;;;16.48;78.39;100716.94;4158405;28;20566;-66
2023/09/28 03:27:13;;;;;;;10.52;7.72;;;;;;;16.47;78.51;100720.41;4161203;28;20033;-66
2023/09/28 03:29:15;;;;;;;9.10;7.38;;;;;;;16.55;78.37;100713.38;4161841;28;20038;-66
2023/09/28 03:31:17;;;;;;;9.65;7.75;;;;;;;16.56;78.17;100705.50;4161731;28;20041;-66
2023/09/28 03:33:20;;;;;;;9.32;7.25;;;;;;;16.53;78.27;100702.03;4179684;28;20129;-66
2023/09/28 03:35:24;;;;;;;9.80;6.60;;;;;;;16.53;78.23;100705.53;4179635;28;20049;-66
2023/09/28 03:37:28;;;;;;;9.77;7.00;;;;;;;16.53;78.00;100705.53;4178930;28;20037;-66
2023/09/28 03:39:31;;;;;;;7.93;5.93;;;;;;;16.52;78.39;100703.78;4178796;28;20041;-66
2023/09/28 03:41:33;;;;;;;8.18;6.47;;;;;;;16.52;78.40;100705.53;4179476;28;20462;-66
2023/09/28 03:43:36;;;;;;;15.68;8.45;;;;;;;16.54;78.75;100709.00;4179516;28;20033;-66
2023/09/28 03:45:39;;;;;;;10.93;7.38;;;;;;;16.54;78.29;100711.63;4179435;28;20455;-66
2023/09/28 03:47:44;;;;;;;9.98;7.13;;;;;;;16.58;78.33;100702.88;4181812;28;20041;-66
2023/09/28 03:49:46;;;;;;;10.20;7.47;;;;;;;16.57;78.11;100706.34;4182253;28;20041;-66
2023/09/28 03:51:51;;;;;;;9.43;7.53;;;;;;;16.56;78.27;100704.63;4182918;28;20083;-66
2023/09/28 03:53:55;;;;;;;9.60;7.20;;;;;;;16.51;78.12;100706.41;4179866;28;20032;-66
2023/09/28 03:56:00;;;;;;;13.77;7.25;;;;;;;16.52;77.96;100701.16;4181789;28;20420;-67
2023/09/28 03:58:02;;;;;;;11.02;7.32;;;;;;;16.51;78.04;100701.16;4180749;28;20107;-67
2023/09/28 04:00:08;;;;;;;9.57;7.20;;;;;;;16.47;78.22;100704.69;4181811;28;20124;-67
2023/09/28 04:02:14;;;;;;;8.93;6.38;;;;;;;16.45;78.29;100706.44;4182084;28;20044;-67
2023/09/28 04:04:18;;;;;;;9.20;6.95;;;;;;;16.45;78.40;100714.31;4181820;28;20489;-67
2023/09/28 04:06:21;;;;;;;13.40;7.18;;;;;;;16.42;78.57;100709.97;4178416;28;20133;-67
2023/09/28 04:08:25;;;;;;;7.78;5.82;;;;;;;16.43;78.57;100713.44;4179957;28;20059;-67
2023/09/28 04:10:28;;;;;;;9.57;6.82;;;;;;;16.45;78.29;100701.22;4181707;28;20039;-67
2023/09/28 04:12:31;;;;;;;11.52;6.38;;;;;;;16.40;78.60;100693.38;4181006;28;20033;-67
2023/09/28 04:14:34;;;;;;;11.10;7.75;;;;;;;16.43;78.16;100705.56;4180971;28;20682;-67
2023/09/28 04:16:39;;;;;;;9.88;7.32;;;;;;;16.41;78.17;100695.09;4180377;28;20135;-67
2023/09/28 04:18:41;;;;;;;;;;;;;;;16.34;78.26;100696.00;4181558;28;20519;-67
2023/09/28 04:20:44;;;;;;;10.73;6.63;;;;;;;16.37;78.11;100699.50;4181984;28;19928;-67
2023/09/28 04:22:47;;;;;;;11.88;6.53;;;;;;;16.40;77.76;100699.47;4181427;28;20065;-67
2023/09/28 04:24:51;;;;;;;7.60;6.80;;;;;;;16.38;77.66;100696.00;4181478;28;20032;-67
2023/09/28 04:26:58;;;;;;;8.52;6.25;;;;;;;16.41;77.74;100695.09;4175702;28;20055;-67
2023/09/28 04:29:01;;;;;;;9.30;6.38;;;;;;;16.45;77.36;100702.06;4180435;28;20049;-67
2023/09/28 04:31:04;;;;;;;7.95;6.40;;;;;;;16.38;77.54;100696.00;4179199;28;20049;-67
2023/09/28 04:33:06;;;;;;;10.35;8.13;;;;;;;16.36;77.54;100692.50;4177101;28;20040;-67
2023/09/28 04:35:13;;;;;;;9.05;7.32;;;;;;;16.35;77.72;100709.13;4175801;28;20045;-68
2023/09/28 04:37:16;;;;;;;8.85;5.68;;;;;;;16.34;77.70;100711.75;4180964;28;20488;-67
2023/09/28 04:39:23;;;;;;;9.75;6.40;;;;;;;16.37;77.37;100715.25;4163674;28;20100;-67
2023/09/28 04:41:29;;;;;;;9.48;6.97;;;;;;;16.35;77.43;100705.63;4181433;28;20456;-67
2023/09/28 04:43:32;;;;;;;8.90;5.75;;;;;;;16.33;77.41;100715.28;4177934;28;20065;-67
2023/09/28 04:45:35;;;;;;;11.25;6.82;;;;;;;16.40;76.97;100714.34;4181207;28;20128;-67
2023/09/28 04:47:37;;;;;;;8.00;5.88;;;;;;;16.44;76.45;100718.72;4178414;28;20033;-68
2023/09/28 04:49:41;;;;;;;9.38;6.15;;;;;;;16.38;76.72;100719.63;4163223;28;20051;-67
2023/09/28 04:51:44;;;;;;;9.73;6.63;;;;;;;16.35;76.65;100717.00;4181083;28;20040;-67
2023/09/28 04:53:47;;;;;;;7.68;5.82;;;;;;;16.30;77.07;100718.78;4181103;28;20029;-67
2023/09/28 04:55:49;;;;;;;9.52;6.45;;;;;;;16.32;76.84;100724.00;4180976;28;20061;-67
2023/09/28 04:57:54;;;;;;;8.43;6.07;;;;;;;16.25;77.25;100727.53;4180420;28;20044;-67
2023/09/28 05:00:00;;;;;;;10.57;6.40;;;;;;;16.23;77.33;100727.56;4181143;28;20029;-67
2023/09/28 05:02:04;;;;;;;8.45;5.65;;;;;;;16.22;77.18;100721.44;4180667;28;20049;-67
2023/09/28 05:04:10;;;;;;;8.32;6.15;;;;;;;16.21;77.26;100737.19;4181291;28;20055;-67
2023/09/28 05:06:13;;;;;;;10.73;6.10;;;;;;;16.23;77.20;100740.66;4177265;28;20071;-67
2023/09/28 05:08:16;;;;;;;10.57;5.97;;;;;;;16.16;77.25;100752.06;4163047;28;20046;-67
2023/09/28 05:10:19;;;;;;;8.90;5.78;;;;;;;16.15;77.38;100750.31;4180245;28;20450;-67
2023/09/28 05:12:21;;;;;;;10.55;6.30;;;;;;;16.19;77.11;100747.69;4163363;28;20384;-67
2023/09/28 05:14:26;;;;;;;6.70;4.95;;;;;;;16.19;77.12;100746.81;4180835;28;20032;-67
2023/09/28 05:16:28;;;;;;;8.13;5.55;;;;;;;16.16;77.23;100752.06;4177190;28;20040;-67
2023/09/28 05:18:31;;;;;;;8.23;5.85;;;;;;;16.12;77.43;100750.31;4163156;28;20045;-67
2023/09/28 05:20:34;;;;;;;8.68;6.18;;;;;;;16.16;77.36;100746.81;4181321;28;20460;-67
2023/09/28 05:22:36;;;;;;;9.52;6.28;;;;;;;16.13;77.12;100746.84;4180676;28;20063;-67
2023/09/28 05:24:39;;;;;;;9.20;6.25;;;;;;;16.12;77.34;100745.09;4180134;28;20055;-67
2023/09/28 05:26:42;;;;;;;9.40;5.30;;;;;;;16.09;77.58;100751.25;4179836;28;20041;-67
2023/09/28 05:28:45;;;;;;;9.18;6.18;;;;;;;16.09;77.34;100745.09;4179341;28;20081;-67
2023/09/28 05:30:50;;;;;;;11.43;6.72;;;;;;;16.13;77.21;100752.09;4180416;28;20551;-67
2023/09/28 05:32:53;;;;;;;9.63;6.10;;;;;;;16.15;77.06;100758.19;4180271;28;20041;-67
2023/09/28 05:34:56;;;;;;;10.13;5.40;;;;;;;16.12;77.09;100755.56;4180691;28;20487;-67
2023/09/28 05:36:59;;;;;;;8.05;6.50;;;;;;;16.14;77.20;100753.84;4180043;28;20508;-67
2023/09/28 05:39:03;;;;;;;11.82;5.82;;;;;;;16.13;77.51;100759.94;4162872;28;20177;-67
2023/09/28 05:41:06;;;;;;;9.17;5.87;;;;;;;16.13;77.36;100759.94;4179923;28;20087;-67
2023/09/28 05:43:09;;;;;;;9.20;5.90;;;;;;;16.19;77.42;100760.81;4179992;28;20044;-67
2023/09/28 05:45:12;;;;;;;7.45;5.97;;;;;;;16.16;77.35;100773.91;4162711;28;20045;-67
2023/09/28 05:47:17;;;;;;;7.63;5.20;;;;;;;16.17;77.21;100775.66;4176619;28;20033;-67
2023/09/28 05:49:20;;;;;;;7.75;5.38;;;;;;;16.26;76.82;100774.75;4179994;28;20041;-67
2023/09/28 05:51:23;;;;;;;10.15;6.03;;;;;;;16.20;76.77;100775.66;4180211;28;20480;-67
2023/09/28 05:53:26;;;;;;;11.23;6.72;;;;;;;16.22;76.98;100779.16;4180173;28;20043;-67
2023/09/28 05:55:29;;;;;;;9.75;6.07;;;;;;;16.21;77.11;100787.91;4180370;28;20056;-67
2023/09/28 05:57:32;;;;;;;8.80;5.68;;;;;;;16.29;76.71;100779.97;4179486;28;20080;-67
2023/09/28 05:59:35;;;;;;;8.98;5.65;;;;;;;16.25;76.65;100782.63;4180082;28;20124;-67
2023/09/28 06:01:38;;;;;;;10.73;6.00;;;;;;;16.22;76.77;100784.41;4180013;28;20123;-67
2023/09/28 06:03:43;;;;;;;6.72;5.15;;;;;;;16.15;76.45;100787.03;4180270;28;20083;-67
2023/09/28 06:05:47;;;;;;;8.02;5.75;;;;;;;16.15;76.73;100792.28;4179987;28;20127;-67
2023/09/28 06:07:50;;;;;;;6.90;5.18;;;;;;;16.15;76.48;100797.53;4179685;28;20039;-67
2023/09/28 06:09:53;;;;;;;10.38;5.65;;;;;;;16.18;76.43;100787.06;4179212;28;20033;-67
2023/09/28 06:12:01;;;;;;;10.68;5.32;;;;;;;16.18;76.74;100798.41;4180126;28;20036;-67
2023/09/28 06:14:02;;;;;;;;;;;;;;;16.12;76.97;100798.44;4162533;28;20083;-67
2023/09/28 06:16:12;;;;;;;7.82;5.28;;;;;;;16.14;76.71;100804.53;4179906;28;19964;-67
2023/09/28 06:18:14;;;;;;;;;;;;;;;16.08;76.63;100811.53;4179729;28;20475;-67
2023/09/28 06:20:19;;;;;;;10.00;4.72;;;;;;;16.12;76.92;100819.41;4179629;28;19924;-67
2023/09/28 06:22:22;;;;;;;8.32;5.30;;;;;;;16.21;76.43;100815.88;4179154;28;20033;-67
2023/09/28 06:24:25;;;;;;;8.63;5.90;;;;;;;16.25;76.38;100809.72;4179703;28;20130;-67
2023/09/28 06:26:28;;;;;;;10.00;5.63;;;;;;;16.24;76.13;100808.00;4179710;28;20080;-67
2023/09/28 06:28:34;;;;;;;7.70;5.70;;;;;;;16.23;76.44;100814.13;4179508;28;20037;-67
2023/09/28 06:30:37;;;;;;;8.30;5.35;;;;;;;16.23;76.21;100820.22;4177161;28;20033;-67
2023/09/28 06:32:41;;;;;;;8.10;5.38;;;;;;;16.28;76.36;100815.00;4179382;28;20069;-67
2023/09/28 06:34:44;;;;;;;10.15;5.70;;;;;;;16.34;76.06;100820.22;4178173;28;20040;-67
2023/09/28 06:36:48;;;;;;;8.73;5.60;;;;;;;16.38;75.89;100818.44;4179314;28;20254;-67
2023/09/28 06:38:56;;;;;;;13.02;6.55;;;;;;;16.44;75.42;100814.91;4176888;28;20044;-67
2023/09/28 06:40:59;;;;;;;7.68;5.20;;;;;;;16.45;75.45;100811.41;4179711;28;20444;-67
2023/09/28 06:43:02;;;;;;;9.40;5.35;;;;;;;16.53;75.23;100809.66;4179454;28;20037;-67
2023/09/28 06:45:06;;;;;;;8.63;5.13;;;;;;;16.50;75.18;100804.38;4179594;28;20112;-67
2023/09/28 06:47:10;;;;;;;8.45;4.32;;;;;;;16.46;75.40;100813.19;4179377;28;20319;-67
2023/09/28 06:49:13;;;;;;;8.25;5.40;;;;;;;16.49;75.46;100814.03;4175391;28;20090;-67
2023/09/28 06:51:16;;;;;;;10.45;5.25;;;;;;;16.68;74.45;100820.06;4179536;28;20048;-67
2023/09/28 06:53:20;;;;;;;9.23;5.15;;;;;;;16.64;74.37;100815.69;4179621;28;20412;-67
2023/09/28 06:55:23;;;;;;;8.05;4.82;;;;;;;16.62;74.81;100814.84;4162122;28;20038;-67
2023/09/28 06:57:27;;;;;;;11.20;5.10;;;;;;;16.66;74.79;100813.06;4179107;28;20041;-67
2023/09/28 06:59:30;;;;;;;7.97;5.13;;;;;;;16.65;74.56;100829.72;4179628;28;20415;-67
2023/09/28 07:01:33;;;;;;;12.25;5.40;;;;;;;16.67;74.29;100836.66;4177819;28;20719;-67
2023/09/28 07:03:38;;;;;;;8.95;5.03;;;;;;;16.75;73.94;100821.75;4179465;28;20418;-67
2023/09/28 07:05:41;;;;;;;9.88;4.93;;;;;;;16.89;73.64;100823.47;4179372;28;20032;-67
2023/09/28 07:07:45;;;;;;;8.73;5.35;;;;;;;16.89;73.67;100826.09;4179023;28;20044;-67
2023/09/28 07:09:51;;;;;;;10.67;4.97;;;;;;;16.90;73.20;100826.09;4176527;28;20052;-67
2023/09/28 07:11:59;;;;;;;8.88;4.45;;;;;;;16.89;73.41;100828.72;4179343;28;20291;-67
2023/09/28 07:14:02;;;;;;;7.22;4.28;;;;;;;16.97;73.29;100821.69;4179589;28;20067;-67
2023/09/28 07:16:07;;;;;;;7.72;4.95;;;;;;;17.07;72.79;100823.34;4179030;28;20415;-67
2023/09/28 07:18:10;;;;;;;7.03;4.47;;;;;;;17.04;73.05;100831.25;4179342;28;20132;-67
2023/09/28 07:20:15;;;;;;;8.23;4.57;;;;;;;17.01;73.12;100833.03;4177895;28;20049;-67
2023/09/28 07:22:20;;;;;;;;;;;;;;;16.99;72.94;100840.06;4182888;28;20099;-67
2023/09/28 07:24:25;;;;;;;;;;;;;;;17.05;72.88;100838.25;4183051;28;20400;-67
2023/09/28 07:26:29;;;;;;;7.65;4.07;;;;;;;17.21;71.79;100838.16;4178932;28;19970;-67
2023/09/28 07:28:31;;;;;;;7.22;5.03;;;;;;;17.21;71.87;100836.38;4182204;28;20504;-67
2023/09/28 07:30:35;;;;;;;8.63;4.65;;;;;;;17.20;71.90;100842.53;4182495;28;20029;-67
2023/09/28 07:32:37;;;;;;;10.70;5.00;;;;;;;17.43;70.34;100834.50;4182516;28;20443;-67
2023/09/28 07:34:41;;;;;;;10.88;6.28;;;;;;;17.37;70.75;100841.53;4182452;28;20040;-67
2023/09/28 07:36:45;;;;;;;10.23;5.00;;;;;;;17.41;70.69;100830.97;4181110;28;20484;-67
2023/09/28 07:38:48;;;;;;;9.40;5.00;;;;;;;17.42;70.46;100827.47;4182248;28;20480;-67
2023/09/28 07:40:50;;;;;;;6.70;4.45;;;;;;;17.49;70.05;100827.41;4164593;28;20042;-67
2023/09/28 07:42:55;;;;;;;7.85;4.25;;;;;;;17.50;70.46;100834.44;4182183;28;20168;-67
2023/09/28 07:44:57;;;;;;;9.52;4.25;;;;;;;17.47;70.50;100850.22;4182561;28;20033;-67
2023/09/28 07:47:00;;;;;;;7.45;5.32;;;;;;;17.63;69.78;100841.31;4181713;28;20115;-67
2023/09/28 07:49:03;;;;;;;8.07;5.13;;;;;;;17.59;69.17;100850.13;4182117;28;20052;-67
2023/09/28 07:51:07;;;;;;;8.25;4.40;;;;;;;17.61;69.67;100854.47;4178618;28;20095;-67
2023/09/28 07:53:10;;;;;;;11.35;5.65;;;;;;;17.62;69.67;100857.97;4181992;28;20045;-67
2023/09/28 07:55:14;;;;;;;8.52;4.45;;;;;;;17.59;70.07;100863.25;4181253;28;20090;-67
2023/09/28 07:57:17;;;;;;;7.70;4.93;;;;;;;17.62;69.41;100858.88;4181765;28;20072;-67
2023/09/28 07:59:21;;;;;;;7.88;5.03;;;;;;;17.73;69.32;100856.13;4181944;28;20040;-67
2023/09/28 08:01:26;;;;;;;;;;;;;;;17.72;69.61;100859.63;4181319;28;20067;-67
2023/09/28 08:03:29;;;;;;;6.53;4.28;;;;;;;17.75;69.30;100871.88;4164113;28;19964;-67
2023/09/28 08:05:32;;;;;;;6.80;4.15;;;;;;;17.83;69.55;100877.97;4181820;28;20124;-67
2023/09/28 08:07:35;;;;;;;7.65;5.00;;;;;;;17.97;69.19;100883.13;4181437;28;20040;-67
2023/09/28 08:09:38;;;;;;;10.52;4.53;;;;;;;18.00;69.20;100869.06;4181855;28;20029;-67
2023/09/28 08:11:41;;;;;;;7.72;3.83;;;;;;;18.05;69.22;100868.13;4164421;28;20037;-67
2023/09/28 08:13:44;;;;;;;7.80;4.50;;;;;;;18.11;68.47;100856.69;4164020;28;20091;-67
2023/09/28 08:15:49;;;;;;;8.40;5.05;;;;;;;18.24;68.29;100854.78;4181595;28;20028;-67
2023/09/28 08:17:51;;;;;;;10.30;4.50;;;;;;;18.28;68.24;100851.22;4163761;28;20400;-67
2023/09/28 08:19:54;;;;;;;10.82;4.22;;;;;;;18.31;67.95;100845.91;4181140;28;20040;-67
2023/09/28 08:21:56;;;;;;;6.30;4.38;;;;;;;18.35;68.10;100850.25;4178359;28;20481;-67
2023/09/28 08:23:59;;;;;;;6.93;4.07;;;;;;;18.39;68.28;100841.44;4181525;28;20037;-67
2023/09/28 08:26:02;;;;;;;9.60;4.63;;;;;;;18.38;67.91;100850.22;4181567;28;20116;-67
2023/09/28 08:28:06;;;;;;;7.93;4.40;;;;;;;18.46;67.64;100850.16;4181221;28;20082;-67
2023/09/28 08:30:10;;;;;;;9.50;4.00;;;;;;;18.52;67.43;100857.09;4160337;28;20750;-67
2023/09/28 08:32:14;;;;;;;6.10;4.47;;;;;;;18.48;67.50;100859.75;4178806;28;20291;-67
2023/09/28 08:34:17;;;;;;;7.22;4.30;;;;;;;18.54;67.89;100865.84;4181136;28;20049;-67
2023/09/28 08:36:40;;;;;;;7.07;4.47;;;;;;;18.65;66.77;100863.94;4178164;28;20033;-67
2023/09/28 08:38:43;;;;;;;7.95;3.90;;;;;;;18.72;66.95;100855.09;4180221;28;20531;-67
2023/09/28 08:40:46;;;;;;;7.10;4.20;;;;;;;18.86;66.71;100859.28;4181067;28;20099;-67
2023/09/28 08:42:50;;;;;;;9.57;4.82;;;;;;;18.89;66.55;100859.28;4181265;28;20453;-67
2023/09/28 08:44:59;;;;;;;;;;;;;;;18.78;66.98;100865.53;4181561;28;20040;-67
2023/09/28 08:47:11;;;;;;;6.68;3.63;;;;;;;18.86;67.11;100864.56;4180955;28;19920;-67
2023/09/28 08:49:15;;;;;;;7.82;4.38;;;;;;;18.95;66.50;100873.25;4181224;28;20091;-67
2023/09/28 08:51:19;;;;;;;9.77;4.40;;;;;;;19.02;66.32;100863.47;4181208;28;20045;-67
2023/09/28 08:53:23;;;;;;;9.90;4.33;;;;;;;19.13;66.42;100864.19;4177994;28;20068;-67
2023/09/28 08:55:27;;;;;;;8.15;3.90;;;;;;;19.24;66.02;100863.16;4181048;28;20041;-67
2023/09/28 08:57:35;;;;;;;8.57;4.60;;;;;;;19.31;65.82;100857.75;4163161;28;20156;-67
2023/09/28 08:59:39;;;;;;;9.30;4.20;;;;;;;19.52;65.03;100859.22;4180984;28;20488;-67
2023/09/28 09:01:43;;;;;;;8.45;4.40;;;;;;;19.48;65.59;100857.50;4180690;28;20033;-67
2023/09/28 09:03:47;;;;;;;8.15;4.38;;;;;;;19.48;65.59;100857.50;4163022;28;20041;-67
2023/09/28 09:05:53;;;;;;;;;;;;;;;19.57;65.16;100861.75;4181415;28;20036;-67
2023/09/28 09:07:57;;;;;;;7.55;4.22;;;;;;;19.60;64.64;100866.13;4180802;28;19928;-67
2023/09/28 09:10:00;;;;;;;;;;;;;;;19.53;64.37;100868.84;4177416;28;20069;-67
2023/09/28 09:12:08;;;;;;;6.88;4.18;;;;;;;19.75;64.18;100868.47;4180804;28;19921;-67
2023/09/28 09:14:11;;;;;;;9.35;4.68;;;;;;;19.89;64.09;100873.56;4180004;28;20116;-67
2023/09/28 09:16:15;;;;;;;8.82;3.90;;;;;;;19.97;64.45;100873.41;4162806;28;20100;-67
2023/09/28 09:18:19;;;;;;;7.85;4.18;;;;;;;20.03;64.22;100873.28;4179556;28;20041;-67
2023/09/28 09:20:24;;;;;;;6.80;3.97;;;;;;;20.15;63.29;100878.38;4162734;28;20045;-68
2023/09/28 09:22:29;;;;;;;8.27;3.97;;;;;;;20.18;63.43;100875.66;4179828;28;20040;-67
2023/09/28 09:24:54;;;;;;;8.52;4.57;;;;;;;20.33;63.29;100869.22;4179060;28;20102;-67
2023/09/28 09:26:57;;;;;;;7.00;4.00;;;;;;;20.43;62.63;100869.00;4180261;28;20091;-67
2023/09/28 09:29:00;;;;;;;9.53;4.37;;;;;;;20.51;62.16;100878.53;4163033;28;20045;-67
2023/09/28 09:31:04;;;;;;;9.73;4.80;;;;;;;20.89;60.11;100862.78;4180111;28;20048;-67
2023/09/28 09:33:08;;;;;;;6.60;4.15;;;;;;;20.77;61.08;100856.00;4163066;28;20139;-67
2023/09/28 09:35:11;;;;;;;6.50;4.20;;;;;;;20.90;60.92;100862.75;4180379;28;20068;-67
2023/09/28 09:37:15;;;;;;;8.68;4.45;;;;;;;21.01;60.70;100854.59;4162147;28;20477;-67